SAS45T EKCH-EFHK
Flight info
| Callsign | SAS45T |
|---|---|
| Flight time | 1h 19m |
| Altitude | 37000 |
| Route | KEMAX Q44 IDPAL DCT MOVIS DCT ALAMI DCT OKEVU DCT EVADI Y370 DIVAM |
| Aircraft | A20N/M-SDE2E3FGHIRWXY/LB1 |
Departure
| Time | 2026-05-06 19:26 |
|---|---|
| Airport | Copenhagen Kastrup Airport (EKCH) |
Arrival
| Time | 2026-05-06 20:46 |
|---|---|
| Airport | Helsinki Vantaa Airport (EFHK) |
| Time | Latitude | Longitude | Altitude | Speed | Heading |
|---|---|---|---|---|---|
| 2026-05-06 19:01 | 55.62719 | 12.64094 | 17 ft | 0 kts | 33° |
| 2026-05-06 19:11 | 55.62719 | 12.64093 | 17 ft | 0 kts | 33° |
| 2026-05-06 19:17 | 55.62714 | 12.64087 | 17 ft | 2 kts | 33° |
| 2026-05-06 19:17 | 55.62701 | 12.64073 | 17 ft | 2 kts | 33° |
| 2026-05-06 19:18 | 55.62688 | 12.64058 | 16 ft | 2 kts | 33° |
| 2026-05-06 19:18 | 55.62676 | 12.64044 | 16 ft | 2 kts | 32° |
| 2026-05-06 19:18 | 55.62667 | 12.64025 | 16 ft | 2 kts | 85° |
| 2026-05-06 19:18 | 55.62669 | 12.64007 | 15 ft | 0 kts | 120° |
| 2026-05-06 19:19 | 55.62674 | 12.63997 | 15 ft | 1 kts | 125° |
| 2026-05-06 19:19 | 55.62674 | 12.63995 | 15 ft | 0 kts | 125° |
| 2026-05-06 19:19 | 55.62674 | 12.63996 | 15 ft | 0 kts | 125° |
| 2026-05-06 19:22 | 55.62662 | 12.64026 | 15 ft | 7 kts | 125° |
| 2026-05-06 19:22 | 55.62631 | 12.64108 | 16 ft | 8 kts | 122° |
| 2026-05-06 19:22 | 55.62594 | 12.64209 | 17 ft | 11 kts | 123° |
| 2026-05-06 19:23 | 55.62540 | 12.64352 | 16 ft | 15 kts | 121° |
| 2026-05-06 19:23 | 55.62473 | 12.64479 | 17 ft | 14 kts | 171° |
| 2026-05-06 19:23 | 55.62368 | 12.64443 | 15 ft | 16 kts | 194° |
| 2026-05-06 19:23 | 55.62260 | 12.64389 | 15 ft | 16 kts | 200° |
| 2026-05-06 19:24 | 55.62154 | 12.64311 | 15 ft | 16 kts | 204° |
| 2026-05-06 19:24 | 55.62050 | 12.64227 | 16 ft | 15 kts | 204° |
| 2026-05-06 19:24 | 55.61956 | 12.64147 | 18 ft | 14 kts | 207° |
| 2026-05-06 19:24 | 55.61863 | 12.64077 | 20 ft | 14 kts | 190° |
| 2026-05-06 19:25 | 55.61766 | 12.64072 | 20 ft | 13 kts | 180° |
| 2026-05-06 19:25 | 55.61669 | 12.64088 | 20 ft | 14 kts | 174° |
| 2026-05-06 19:25 | 55.61572 | 12.63992 | 20 ft | 32 kts | 221° |
| 2026-05-06 19:25 | 55.61212 | 12.63437 | 20 ft | 103 kts | 221° |
| 2026-05-06 19:26 | 55.60516 | 12.62356 | 18 ft | 160 kts | 219° |
| 2026-05-06 19:26 | 55.59647 | 12.61022 | 536 ft | 167 kts | 218° |
| 2026-05-06 19:26 | 55.58762 | 12.59682 | 1207 ft | 172 kts | 217° |
| 2026-05-06 19:26 | 55.57851 | 12.58328 | 1866 ft | 176 kts | 217° |
| 2026-05-06 19:27 | 55.56884 | 12.56903 | 2359 ft | 188 kts | 218° |
| 2026-05-06 19:27 | 55.55777 | 12.55575 | 2780 ft | 202 kts | 203° |
| 2026-05-06 19:27 | 55.54422 | 12.54627 | 3194 ft | 219 kts | 197° |
| 2026-05-06 19:27 | 55.52903 | 12.53723 | 3566 ft | 242 kts | 196° |
| 2026-05-06 19:28 | 55.51275 | 12.52778 | 4062 ft | 260 kts | 197° |
| 2026-05-06 19:28 | 55.49504 | 12.51743 | 4712 ft | 273 kts | 197° |
| 2026-05-06 19:28 | 55.47704 | 12.50681 | 5583 ft | 277 kts | 198° |
| 2026-05-06 19:28 | 55.45879 | 12.49724 | 6452 ft | 279 kts | 187° |
| 2026-05-06 19:29 | 55.43980 | 12.50056 | 7280 ft | 279 kts | 157° |
| 2026-05-06 19:29 | 55.42415 | 12.51938 | 8128 ft | 279 kts | 130° |
| 2026-05-06 19:29 | 55.41486 | 12.54897 | 8943 ft | 281 kts | 106° |
| 2026-05-06 19:29 | 55.40958 | 12.58210 | 9730 ft | 286 kts | 105° |
| 2026-05-06 19:30 | 55.40439 | 12.61601 | 10432 ft | 294 kts | 102° |
| 2026-05-06 19:30 | 55.40351 | 12.65257 | 10859 ft | 310 kts | 78° |
| 2026-05-06 19:30 | 55.41160 | 12.68806 | 11429 ft | 318 kts | 54° |
| 2026-05-06 19:30 | 55.42714 | 12.71501 | 12155 ft | 320 kts | 31° |
| 2026-05-06 19:31 | 55.44775 | 12.72930 | 12894 ft | 321 kts | 11° |
| 2026-05-06 19:31 | 55.46953 | 12.73726 | 13609 ft | 326 kts | 11° |
| 2026-05-06 19:31 | 55.50784 | 12.78003 | 14791 ft | 345 kts | 48° |
| 2026-05-06 19:32 | 55.52326 | 12.81278 | 15464 ft | 351 kts | 50° |
| 2026-05-06 19:32 | 55.53878 | 12.84625 | 16100 ft | 355 kts | 49° |
| 2026-05-06 19:32 | 55.55470 | 12.87965 | 16733 ft | 360 kts | 48° |
| 2026-05-06 19:32 | 55.57120 | 12.91342 | 17347 ft | 365 kts | 47° |
| 2026-05-06 19:33 | 55.58788 | 12.94699 | 17963 ft | 370 kts | 47° |
| 2026-05-06 19:33 | 55.60510 | 12.98127 | 18580 ft | 375 kts | 47° |
| 2026-05-06 19:33 | 55.62259 | 13.01589 | 19178 ft | 379 kts | 47° |
| 2026-05-06 19:33 | 55.64006 | 13.05037 | 19741 ft | 383 kts | 46° |
| 2026-05-06 19:34 | 55.65797 | 13.08569 | 20345 ft | 387 kts | 47° |
| 2026-05-06 19:34 | 55.67580 | 13.12086 | 20927 ft | 391 kts | 47° |
| 2026-05-06 19:34 | 55.69399 | 13.15677 | 21466 ft | 395 kts | 47° |
| 2026-05-06 19:34 | 55.71226 | 13.19289 | 22000 ft | 399 kts | 47° |
| 2026-05-06 19:35 | 55.73080 | 13.22960 | 22527 ft | 403 kts | 47° |
| 2026-05-06 19:35 | 55.74959 | 13.26687 | 23028 ft | 407 kts | 47° |
| 2026-05-06 19:35 | 55.76839 | 13.30420 | 23521 ft | 411 kts | 47° |
| 2026-05-06 19:35 | 55.78751 | 13.34222 | 24026 ft | 414 kts | 47° |
| 2026-05-06 19:36 | 55.80652 | 13.38008 | 24513 ft | 418 kts | 47° |
| 2026-05-06 19:36 | 55.82584 | 13.41862 | 25014 ft | 421 kts | 47° |
| 2026-05-06 19:36 | 55.84553 | 13.45795 | 25516 ft | 424 kts | 47° |
| 2026-05-06 19:36 | 55.86525 | 13.49743 | 26010 ft | 427 kts | 47° |
| 2026-05-06 19:37 | 55.88484 | 13.53669 | 26467 ft | 430 kts | 47° |
| 2026-05-06 19:37 | 55.90472 | 13.57663 | 26920 ft | 433 kts | 47° |
| 2026-05-06 19:37 | 55.92487 | 13.61716 | 27364 ft | 436 kts | 47° |
| 2026-05-06 19:37 | 55.94482 | 13.65734 | 27834 ft | 438 kts | 49° |
| 2026-05-06 19:38 | 55.96495 | 13.69795 | 28418 ft | 437 kts | 49° |
| 2026-05-06 19:38 | 55.98507 | 13.73861 | 28882 ft | 438 kts | 49° |
| 2026-05-06 19:38 | 56.00520 | 13.77940 | 29268 ft | 441 kts | 49° |
| 2026-05-06 19:38 | 56.02545 | 13.82046 | 29650 ft | 444 kts | 49° |
| 2026-05-06 19:39 | 56.04571 | 13.86164 | 30033 ft | 447 kts | 49° |
| 2026-05-06 19:39 | 56.06635 | 13.90366 | 30388 ft | 450 kts | 49° |
| 2026-05-06 19:39 | 56.08680 | 13.94538 | 30734 ft | 453 kts | 50° |
| 2026-05-06 19:39 | 56.10765 | 13.98797 | 31068 ft | 455 kts | 50° |
| 2026-05-06 19:40 | 56.12845 | 14.03058 | 31390 ft | 457 kts | 50° |
| 2026-05-06 19:40 | 56.14924 | 14.07326 | 31792 ft | 457 kts | 49° |
| 2026-05-06 19:40 | 56.16985 | 14.11562 | 32215 ft | 455 kts | 49° |
| 2026-05-06 19:40 | 56.19054 | 14.15822 | 32605 ft | 455 kts | 49° |
| 2026-05-06 19:41 | 56.21130 | 14.20101 | 32992 ft | 454 kts | 49° |
| 2026-05-06 19:41 | 56.23183 | 14.24340 | 33359 ft | 453 kts | 49° |
| 2026-05-06 19:41 | 56.25244 | 14.28603 | 33703 ft | 453 kts | 49° |
| 2026-05-06 19:41 | 56.27298 | 14.32859 | 34034 ft | 452 kts | 49° |
| 2026-05-06 19:42 | 56.29329 | 14.37076 | 34334 ft | 451 kts | 49° |
| 2026-05-06 19:42 | 56.31368 | 14.41316 | 34602 ft | 451 kts | 49° |
| 2026-05-06 19:42 | 56.33418 | 14.45588 | 34862 ft | 451 kts | 49° |
| 2026-05-06 19:42 | 56.35474 | 14.49879 | 35104 ft | 451 kts | 49° |
| 2026-05-06 19:43 | 56.37506 | 14.54127 | 35291 ft | 451 kts | 49° |
| 2026-05-06 19:43 | 56.39537 | 14.58380 | 35447 ft | 452 kts | 49° |
| 2026-05-06 19:43 | 56.41575 | 14.62655 | 35588 ft | 454 kts | 49° |
| 2026-05-06 19:43 | 56.43631 | 14.66976 | 35724 ft | 455 kts | 50° |
| 2026-05-06 19:44 | 56.45686 | 14.71304 | 35872 ft | 456 kts | 50° |
| 2026-05-06 19:44 | 56.47742 | 14.75643 | 36015 ft | 457 kts | 50° |
| 2026-05-06 19:44 | 56.49808 | 14.80008 | 36141 ft | 458 kts | 49° |
| 2026-05-06 19:44 | 56.51867 | 14.84371 | 36257 ft | 460 kts | 49° |
| 2026-05-06 19:45 | 56.53947 | 14.88781 | 36385 ft | 460 kts | 49° |
| 2026-05-06 19:45 | 56.56007 | 14.93159 | 36521 ft | 461 kts | 49° |
| 2026-05-06 19:45 | 56.58076 | 14.97564 | 36628 ft | 462 kts | 49° |
| 2026-05-06 19:45 | 56.60170 | 15.02031 | 36750 ft | 463 kts | 50° |
| 2026-05-06 19:46 | 56.62241 | 15.06456 | 36860 ft | 464 kts | 49° |
| 2026-05-06 19:46 | 56.64305 | 15.10878 | 36934 ft | 466 kts | 49° |
| 2026-05-06 19:46 | 56.68485 | 15.19851 | 36949 ft | 466 kts | 49° |
| 2026-05-06 19:47 | 56.72669 | 15.28866 | 36950 ft | 467 kts | 49° |
| 2026-05-06 19:47 | 56.76826 | 15.37860 | 36949 ft | 466 kts | 49° |
| 2026-05-06 19:48 | 56.80975 | 15.46870 | 36946 ft | 467 kts | 49° |
| 2026-05-06 19:48 | 56.85120 | 15.55908 | 36950 ft | 467 kts | 49° |
| 2026-05-06 19:49 | 56.89289 | 15.65027 | 36946 ft | 467 kts | 50° |
| 2026-05-06 19:49 | 56.93427 | 15.74113 | 36939 ft | 467 kts | 50° |
| 2026-05-06 19:50 | 56.97560 | 15.83225 | 36939 ft | 468 kts | 50° |
| 2026-05-06 19:50 | 57.01702 | 15.92396 | 36942 ft | 468 kts | 50° |
| 2026-05-06 19:51 | 57.05808 | 16.01522 | 36939 ft | 468 kts | 50° |
| 2026-05-06 19:51 | 57.09947 | 16.10756 | 36942 ft | 469 kts | 50° |
| 2026-05-06 19:52 | 57.14077 | 16.20002 | 36944 ft | 469 kts | 50° |
| 2026-05-06 19:52 | 57.18183 | 16.29230 | 36947 ft | 469 kts | 50° |
| 2026-05-06 19:53 | 57.22313 | 16.38549 | 36951 ft | 469 kts | 50° |
| 2026-05-06 19:53 | 57.26396 | 16.47800 | 36956 ft | 469 kts | 50° |
| 2026-05-06 19:54 | 57.30505 | 16.57144 | 36961 ft | 469 kts | 50° |
| 2026-05-06 19:54 | 57.34598 | 16.66489 | 36965 ft | 469 kts | 51° |
| 2026-05-06 19:55 | 57.38674 | 16.75831 | 36971 ft | 470 kts | 51° |
| 2026-05-06 19:55 | 57.42763 | 16.85239 | 36978 ft | 470 kts | 51° |
| 2026-05-06 19:56 | 57.46841 | 16.94663 | 36981 ft | 471 kts | 51° |
| 2026-05-06 19:56 | 57.50905 | 17.04089 | 36979 ft | 471 kts | 51° |
| 2026-05-06 19:57 | 57.54964 | 17.13540 | 36980 ft | 471 kts | 51° |
| 2026-05-06 19:57 | 57.59046 | 17.23083 | 36977 ft | 471 kts | 51° |
| 2026-05-06 19:58 | 57.63112 | 17.32625 | 36975 ft | 471 kts | 51° |
| 2026-05-06 19:58 | 57.67145 | 17.42131 | 36976 ft | 470 kts | 51° |
| 2026-05-06 19:59 | 57.71184 | 17.51691 | 36979 ft | 471 kts | 51° |
| 2026-05-06 19:59 | 57.75227 | 17.61297 | 36977 ft | 471 kts | 51° |
| 2026-05-06 20:00 | 57.79253 | 17.70896 | 36976 ft | 472 kts | 52° |
| 2026-05-06 20:00 | 57.83280 | 17.80539 | 36976 ft | 473 kts | 52° |
| 2026-05-06 20:01 | 57.87328 | 17.90273 | 36978 ft | 474 kts | 52° |
| 2026-05-06 20:01 | 57.91341 | 17.99958 | 36971 ft | 473 kts | 52° |
| 2026-05-06 20:02 | 57.95362 | 18.09708 | 36976 ft | 473 kts | 52° |
| 2026-05-06 20:02 | 57.99356 | 18.19438 | 36979 ft | 473 kts | 52° |
| 2026-05-06 20:03 | 58.03356 | 18.29213 | 36977 ft | 473 kts | 52° |
| 2026-05-06 20:03 | 58.07368 | 18.39063 | 36977 ft | 473 kts | 52° |
| 2026-05-06 20:04 | 58.11347 | 18.48868 | 36975 ft | 473 kts | 52° |
| 2026-05-06 20:04 | 58.15336 | 18.58737 | 36977 ft | 474 kts | 52° |
| 2026-05-06 20:05 | 58.19313 | 18.68618 | 36975 ft | 475 kts | 53° |
| 2026-05-06 20:05 | 58.23288 | 18.78538 | 36978 ft | 475 kts | 53° |
| 2026-05-06 20:06 | 58.27260 | 18.88494 | 36978 ft | 475 kts | 53° |
| 2026-05-06 20:06 | 58.31207 | 18.98427 | 36980 ft | 475 kts | 53° |
| 2026-05-06 20:07 | 58.35174 | 19.08454 | 36982 ft | 476 kts | 53° |
| 2026-05-06 20:07 | 58.39132 | 19.18500 | 36984 ft | 476 kts | 53° |
| 2026-05-06 20:08 | 58.43064 | 19.28521 | 36984 ft | 476 kts | 53° |
| 2026-05-06 20:08 | 58.47013 | 19.38630 | 36984 ft | 476 kts | 53° |
| 2026-05-06 20:09 | 58.50948 | 19.48740 | 36985 ft | 477 kts | 53° |
| 2026-05-06 20:09 | 58.54896 | 19.58931 | 36986 ft | 477 kts | 53° |
| 2026-05-06 20:10 | 58.58821 | 19.69104 | 36985 ft | 477 kts | 54° |
| 2026-05-06 20:10 | 58.62732 | 19.79286 | 36984 ft | 477 kts | 54° |
| 2026-05-06 20:11 | 58.66644 | 19.89521 | 36985 ft | 478 kts | 54° |
| 2026-05-06 20:11 | 58.70541 | 19.99749 | 36988 ft | 478 kts | 54° |
| 2026-05-06 20:12 | 58.74456 | 20.10074 | 36983 ft | 478 kts | 53° |
| 2026-05-06 20:12 | 58.78357 | 20.20413 | 36978 ft | 478 kts | 54° |
| 2026-05-06 20:13 | 58.82241 | 20.30746 | 36973 ft | 479 kts | 54° |
| 2026-05-06 20:13 | 58.86109 | 20.41081 | 36975 ft | 479 kts | 54° |
| 2026-05-06 20:14 | 58.89982 | 20.51477 | 36976 ft | 478 kts | 53° |
| 2026-05-06 20:14 | 58.93858 | 20.61928 | 36986 ft | 479 kts | 53° |
| 2026-05-06 20:15 | 58.97715 | 20.72369 | 36993 ft | 479 kts | 54° |
| 2026-05-06 20:15 | 59.01565 | 20.82848 | 36995 ft | 479 kts | 54° |
| 2026-05-06 20:16 | 59.05369 | 20.93387 | 36996 ft | 480 kts | 57° |
| 2026-05-06 20:16 | 59.08952 | 21.04221 | 36997 ft | 480 kts | 58° |
| 2026-05-06 20:17 | 59.12503 | 21.15139 | 36996 ft | 480 kts | 58° |
| 2026-05-06 20:17 | 59.16061 | 21.26096 | 36998 ft | 480 kts | 58° |
| 2026-05-06 20:18 | 59.19616 | 21.37071 | 36997 ft | 480 kts | 58° |
| 2026-05-06 20:18 | 59.23145 | 21.48013 | 36998 ft | 480 kts | 58° |
| 2026-05-06 20:19 | 59.26692 | 21.59059 | 36996 ft | 480 kts | 58° |
| 2026-05-06 20:19 | 59.30197 | 21.70030 | 36999 ft | 480 kts | 58° |
| 2026-05-06 20:20 | 59.33711 | 21.81079 | 37000 ft | 480 kts | 58° |
| 2026-05-06 20:20 | 59.35468 | 21.86622 | 36816 ft | 481 kts | 58° |
| 2026-05-06 20:20 | 59.37212 | 21.92138 | 36470 ft | 481 kts | 58° |
| 2026-05-06 20:21 | 59.38967 | 21.97699 | 35948 ft | 485 kts | 59° |
| 2026-05-06 20:21 | 59.40734 | 22.03317 | 35313 ft | 491 kts | 59° |
| 2026-05-06 20:21 | 59.42526 | 22.09026 | 34607 ft | 496 kts | 59° |
| 2026-05-06 20:21 | 59.44350 | 22.14845 | 33813 ft | 500 kts | 59° |
| 2026-05-06 20:22 | 59.46156 | 22.20630 | 33082 ft | 500 kts | 59° |
| 2026-05-06 20:22 | 59.47960 | 22.26420 | 32403 ft | 499 kts | 59° |
| 2026-05-06 20:22 | 59.49746 | 22.32171 | 31716 ft | 498 kts | 59° |
| 2026-05-06 20:22 | 59.51549 | 22.37986 | 31045 ft | 497 kts | 59° |
| 2026-05-06 20:23 | 59.53337 | 22.43771 | 30524 ft | 492 kts | 59° |
| 2026-05-06 20:23 | 59.55081 | 22.49421 | 30057 ft | 487 kts | 59° |
| 2026-05-06 20:23 | 59.56824 | 22.55085 | 29597 ft | 482 kts | 59° |
| 2026-05-06 20:23 | 59.58540 | 22.60682 | 29149 ft | 477 kts | 59° |
| 2026-05-06 20:24 | 59.60247 | 22.66253 | 28681 ft | 473 kts | 59° |
| 2026-05-06 20:24 | 59.61920 | 22.71727 | 28231 ft | 468 kts | 59° |
| 2026-05-06 20:24 | 59.63576 | 22.77159 | 27791 ft | 463 kts | 59° |
| 2026-05-06 20:24 | 59.65229 | 22.82597 | 27346 ft | 459 kts | 59° |
| 2026-05-06 20:25 | 59.66867 | 22.87993 | 26891 ft | 455 kts | 59° |
| 2026-05-06 20:25 | 59.68463 | 22.93264 | 26450 ft | 451 kts | 59° |
| 2026-05-06 20:25 | 59.70064 | 22.98566 | 26005 ft | 448 kts | 59° |
| 2026-05-06 20:25 | 59.71658 | 23.03860 | 25560 ft | 444 kts | 59° |
| 2026-05-06 20:26 | 59.73221 | 23.09058 | 25137 ft | 441 kts | 59° |
| 2026-05-06 20:26 | 59.74769 | 23.14218 | 24717 ft | 438 kts | 59° |
| 2026-05-06 20:26 | 59.76307 | 23.19358 | 24290 ft | 435 kts | 59° |
| 2026-05-06 20:26 | 59.77845 | 23.24511 | 23860 ft | 432 kts | 59° |
| 2026-05-06 20:27 | 59.79355 | 23.29581 | 23452 ft | 430 kts | 59° |
| 2026-05-06 20:27 | 59.80883 | 23.34718 | 22780 ft | 434 kts | 59° |
| 2026-05-06 20:27 | 59.82426 | 23.39918 | 22106 ft | 437 kts | 59° |
| 2026-05-06 20:27 | 59.83952 | 23.45074 | 21645 ft | 433 kts | 58° |
| 2026-05-06 20:28 | 59.85466 | 23.50203 | 21234 ft | 429 kts | 58° |
| 2026-05-06 20:28 | 59.86951 | 23.55244 | 20789 ft | 425 kts | 58° |
| 2026-05-06 20:28 | 59.88432 | 23.60283 | 20351 ft | 421 kts | 58° |
| 2026-05-06 20:28 | 59.89884 | 23.65234 | 19913 ft | 417 kts | 59° |
| 2026-05-06 20:29 | 59.91330 | 23.70172 | 19465 ft | 414 kts | 59° |
| 2026-05-06 20:29 | 59.92772 | 23.75108 | 19025 ft | 409 kts | 59° |
| 2026-05-06 20:29 | 59.94190 | 23.79968 | 18595 ft | 405 kts | 58° |
| 2026-05-06 20:29 | 59.95598 | 23.84807 | 18155 ft | 401 kts | 58° |
| 2026-05-06 20:30 | 59.96969 | 23.89532 | 17740 ft | 397 kts | 58° |
| 2026-05-06 20:30 | 59.99695 | 23.98944 | 16871 ft | 389 kts | 58° |
| 2026-05-06 20:30 | 60.01030 | 24.03570 | 16447 ft | 385 kts | 58° |
| 2026-05-06 20:31 | 60.02356 | 24.08177 | 16026 ft | 381 kts | 58° |
| 2026-05-06 20:31 | 60.03661 | 24.12723 | 15610 ft | 377 kts | 58° |
| 2026-05-06 20:31 | 60.04951 | 24.17225 | 15197 ft | 372 kts | 58° |
| 2026-05-06 20:31 | 60.06227 | 24.21682 | 14757 ft | 368 kts | 58° |
| 2026-05-06 20:32 | 60.07495 | 24.26119 | 14344 ft | 364 kts | 58° |
| 2026-05-06 20:32 | 60.08733 | 24.30461 | 13895 ft | 361 kts | 58° |
| 2026-05-06 20:32 | 60.09972 | 24.34811 | 13468 ft | 357 kts | 58° |
| 2026-05-06 20:32 | 60.11180 | 24.39060 | 13041 ft | 353 kts | 58° |
| 2026-05-06 20:33 | 60.12390 | 24.43327 | 12617 ft | 350 kts | 58° |
| 2026-05-06 20:33 | 60.13591 | 24.47573 | 12172 ft | 346 kts | 58° |
| 2026-05-06 20:33 | 60.14761 | 24.51709 | 11756 ft | 343 kts | 59° |
| 2026-05-06 20:33 | 60.15934 | 24.55871 | 11336 ft | 339 kts | 59° |
| 2026-05-06 20:34 | 60.17075 | 24.59931 | 10970 ft | 334 kts | 59° |
| 2026-05-06 20:34 | 60.18201 | 24.63937 | 10653 ft | 327 kts | 59° |
| 2026-05-06 20:34 | 60.19297 | 24.67848 | 10340 ft | 320 kts | 60° |
| 2026-05-06 20:34 | 60.20370 | 24.71680 | 10006 ft | 315 kts | 60° |
| 2026-05-06 20:35 | 60.21438 | 24.75503 | 9661 ft | 310 kts | 60° |
| 2026-05-06 20:35 | 60.22479 | 24.79230 | 9321 ft | 305 kts | 60° |
| 2026-05-06 20:35 | 60.23509 | 24.82921 | 8987 ft | 301 kts | 60° |
| 2026-05-06 20:35 | 60.24514 | 24.86534 | 8659 ft | 296 kts | 60° |
| 2026-05-06 20:36 | 60.25507 | 24.90105 | 8336 ft | 292 kts | 61° |
| 2026-05-06 20:36 | 60.26483 | 24.93623 | 8014 ft | 287 kts | 61° |
| 2026-05-06 20:36 | 60.27452 | 24.97124 | 7694 ft | 282 kts | 62° |
| 2026-05-06 20:36 | 60.28387 | 25.00505 | 7382 ft | 278 kts | 62° |
| 2026-05-06 20:37 | 60.29327 | 25.03910 | 7066 ft | 274 kts | 62° |
| 2026-05-06 20:37 | 60.30240 | 25.07227 | 6672 ft | 273 kts | 63° |
| 2026-05-06 20:37 | 60.31152 | 25.10545 | 6315 ft | 270 kts | 62° |
| 2026-05-06 20:37 | 60.32044 | 25.13802 | 5996 ft | 267 kts | 62° |
| 2026-05-06 20:38 | 60.32929 | 25.17045 | 5693 ft | 262 kts | 62° |
| 2026-05-06 20:38 | 60.33808 | 25.20258 | 5400 ft | 258 kts | 62° |
| 2026-05-06 20:38 | 60.34656 | 25.23356 | 5204 ft | 250 kts | 61° |
| 2026-05-06 20:38 | 60.35472 | 25.26338 | 5136 ft | 237 kts | 61° |
| 2026-05-06 20:39 | 60.36250 | 25.29174 | 5073 ft | 225 kts | 59° |
| 2026-05-06 20:39 | 60.37111 | 25.31763 | 4975 ft | 222 kts | 52° |
| 2026-05-06 20:39 | 60.38104 | 25.34108 | 4694 ft | 222 kts | 48° |
| 2026-05-06 20:39 | 60.39302 | 25.36033 | 4378 ft | 222 kts | 20° |
| 2026-05-06 20:40 | 60.40820 | 25.36338 | 4101 ft | 221 kts | 347° |
| 2026-05-06 20:40 | 60.42171 | 25.34995 | 3836 ft | 219 kts | 320° |
| 2026-05-06 20:40 | 60.43282 | 25.32913 | 3599 ft | 216 kts | 317° |
| 2026-05-06 20:40 | 60.44350 | 25.30862 | 3349 ft | 213 kts | 317° |
| 2026-05-06 20:41 | 60.45175 | 25.28395 | 3064 ft | 213 kts | 285° |
| 2026-05-06 20:41 | 60.45139 | 25.25530 | 2966 ft | 203 kts | 249° |
| 2026-05-06 20:41 | 60.44430 | 25.23089 | 3044 ft | 196 kts | 232° |
| 2026-05-06 20:41 | 60.43594 | 25.21050 | 3010 ft | 180 kts | 229° |
| 2026-05-06 20:42 | 60.42797 | 25.19250 | 2959 ft | 164 kts | 228° |
| 2026-05-06 20:42 | 60.42059 | 25.17631 | 2855 ft | 157 kts | 227° |
| 2026-05-06 20:42 | 60.41317 | 25.16011 | 2637 ft | 156 kts | 228° |
| 2026-05-06 20:42 | 60.40581 | 25.14405 | 2416 ft | 155 kts | 228° |
| 2026-05-06 20:43 | 60.39856 | 25.12821 | 2215 ft | 154 kts | 228° |
| 2026-05-06 20:43 | 60.39129 | 25.11229 | 2014 ft | 152 kts | 228° |
| 2026-05-06 20:43 | 60.38443 | 25.09728 | 1786 ft | 140 kts | 228° |
| 2026-05-06 20:43 | 60.37801 | 25.08332 | 1568 ft | 135 kts | 228° |
| 2026-05-06 20:44 | 60.37169 | 25.06939 | 1396 ft | 135 kts | 228° |
| 2026-05-06 20:44 | 60.36528 | 25.05530 | 1240 ft | 135 kts | 228° |
| 2026-05-06 20:44 | 60.35899 | 25.04152 | 1070 ft | 135 kts | 228° |
| 2026-05-06 20:44 | 60.35259 | 25.02742 | 872 ft | 135 kts | 229° |
| 2026-05-06 20:45 | 60.34638 | 25.01353 | 667 ft | 134 kts | 228° |
| 2026-05-06 20:45 | 60.34009 | 24.99974 | 481 ft | 134 kts | 229° |
| 2026-05-06 20:45 | 60.33378 | 24.98597 | 332 ft | 133 kts | 228° |
| 2026-05-06 20:45 | 60.32761 | 24.97233 | 189 ft | 131 kts | 227° |
| 2026-05-06 20:46 | 60.32221 | 24.96039 | 194 ft | 93 kts | 228° |
| 2026-05-06 20:46 | 60.31916 | 24.95391 | 182 ft | 35 kts | 218° |
| 2026-05-06 20:46 | 60.31720 | 24.95223 | 183 ft | 25 kts | 197° |
| 2026-05-06 20:46 | 60.31632 | 24.95283 | 182 ft | 12 kts | 78° |
| 2026-05-06 20:47 | 60.31690 | 24.95435 | 179 ft | 15 kts | 47° |
| 2026-05-06 20:47 | 60.31768 | 24.95604 | 178 ft | 16 kts | 47° |
| 2026-05-06 20:47 | 60.31849 | 24.95777 | 178 ft | 16 kts | 46° |
| 2026-05-06 20:47 | 60.31927 | 24.95945 | 181 ft | 15 kts | 48° |
| 2026-05-06 20:48 | 60.31992 | 24.96094 | 185 ft | 13 kts | 48° |
| 2026-05-06 20:48 | 60.32053 | 24.96230 | 187 ft | 12 kts | 47° |
| 2026-05-06 20:48 | 60.32114 | 24.96362 | 187 ft | 13 kts | 46° |
| 2026-05-06 20:48 | 60.32181 | 24.96508 | 185 ft | 15 kts | 48° |
| 2026-05-06 20:49 | 60.32247 | 24.96687 | 180 ft | 17 kts | 88° |
| 2026-05-06 20:49 | 60.32164 | 24.96843 | 178 ft | 17 kts | 154° |
| 2026-05-06 20:49 | 60.32068 | 24.96940 | 182 ft | 13 kts | 152° |
| 2026-05-06 20:49 | 60.31994 | 24.97019 | 185 ft | 11 kts | 153° |
| 2026-05-06 20:50 | 60.31917 | 24.97098 | 189 ft | 12 kts | 152° |
| 2026-05-06 20:50 | 60.31847 | 24.97170 | 191 ft | 9 kts | 154° |
| 2026-05-06 20:50 | 60.31811 | 24.97170 | 193 ft | 4 kts | 229° |
| 2026-05-06 20:50 | 60.31795 | 24.97115 | 193 ft | 4 kts | 242° |
| 2026-05-06 20:51 | 60.31785 | 24.97077 | 193 ft | 1 kts | 242° |